Time;durP1;ratioP1;P1;durP2;ratioP2;P2;SDS_P1;SDS_P2;PMS_P1;PMS_P2;Temp;Humidity;BMP_temperature;BMP_pressure;BME280_temperature;BME280_humidity;BME280_pressure;Samples;Min_cycle;Max_cycle;Signal;HPM_P1;HPM_P2
2021/01/30 00:01:00;;;;;;;2.08;0.63;;;8.20;70.10;;;;;;5084403;28;20037;-11
2021/01/30 00:03:25;;;;;;;2.17;0.52;;;8.10;70.30;;;;;;5085995;28;20135;-10
2021/01/30 00:05:51;;;;;;;1.05;0.65;;;7.90;70.60;;;;;;5084579;28;20123;-10
2021/01/30 00:08:16;;;;;;;2.63;0.65;;;7.90;71.40;;;;;;5084006;28;20037;-10
2021/01/30 00:10:42;;;;;;;1.75;0.60;;;8.00;71.40;;;;;;5084616;28;20255;-10
2021/01/30 00:13:08;;;;;;;1.80;0.82;;;7.90;71.50;;;;;;5084197;28;20096;-10
2021/01/30 00:15:33;;;;;;;1.15;0.60;;;7.90;72.00;;;;;;5085465;28;20040;-10
2021/01/30 00:17:59;;;;;;;1.38;0.68;;;7.90;72.10;;;;;;5083949;28;20037;-10
2021/01/30 00:20:27;;;;;;;3.13;0.50;;;7.90;72.20;;;;;;5084113;28;20033;-10
2021/01/30 00:22:53;;;;;;;1.13;0.60;;;8.10;72.10;;;;;;5084022;28;20037;-10
2021/01/30 00:25:22;;;;;;;1.08;0.70;;;8.10;72.50;;;;;;5083918;28;20040;-10
2021/01/30 00:31:29;;;;;;;2.55;1.40;;;8.30;72.00;;;;;;5085216;28;20111;-10
2021/01/30 00:33:54;;;;;;;1.02;0.50;;;8.20;72.00;;;;;;5083568;28;20334;-10
2021/01/30 00:36:20;;;;;;;4.03;0.70;;;8.20;72.30;;;;;;5084930;28;20382;-10
2021/01/30 00:38:45;;;;;;;1.00;0.65;;;8.00;72.50;;;;;;5083875;28;20071;-11
2021/01/30 00:41:11;;;;;;;0.98;0.50;;;8.00;73.20;;;;;;5083878;28;20128;-11
2021/01/30 00:43:36;;;;;;;1.08;0.60;;;7.90;72.70;;;;;;5083369;28;20043;-11
2021/01/30 00:46:02;;;;;;;1.33;0.70;;;7.90;73.10;;;;;;5083313;28;20339;-11
2021/01/30 00:48:27;;;;;;;2.05;0.60;;;8.10;73.10;;;;;;5085408;28;20038;-11
2021/01/30 00:50:53;;;;;;;1.98;0.50;;;8.20;73.00;;;;;;5083665;28;20036;-11
2021/01/30 00:53:18;;;;;;;1.52;0.60;;;8.30;72.80;;;;;;5083475;28;20043;-10
2021/01/30 00:55:44;;;;;;;1.50;0.52;;;8.10;73.00;;;;;;5083209;28;20040;-10
2021/01/30 00:58:10;;;;;;;2.28;0.77;;;8.00;73.60;;;;;;5083345;28;20051;-11
2021/01/30 01:00:35;;;;;;;1.50;0.60;;;8.20;73.30;;;;;;5084630;28;20043;-12
2021/01/30 01:03:01;;;;;;;1.98;0.50;;;8.20;73.40;;;;;;5082167;28;20225;-11
2021/01/30 01:05:26;;;;;;;1.95;0.60;;;8.20;73.30;;;;;;5083381;28;20224;-11
2021/01/30 01:07:52;;;;;;;1.42;0.70;;;8.30;73.50;;;;;;5082875;28;20035;-11
2021/01/30 01:10:20;;;;;;;1.63;0.70;;;8.20;73.60;;;;;;5082983;28;20033;-11
2021/01/30 01:16:26;;;;;;;2.45;0.93;;;8.20;73.60;;;;;;5084458;28;20370;-10
2021/01/30 01:18:52;;;;;;;0.88;0.57;;;8.30;73.50;;;;;;5082988;28;20032;-11
2021/01/30 01:21:18;;;;;;;1.83;0.70;;;8.10;73.70;;;;;;5084385;28;20319;-11
2021/01/30 01:23:43;;;;;;;1.02;0.63;;;8.00;74.20;;;;;;5083208;28;20097;-11
2021/01/30 01:26:10;;;;;;;1.70;0.60;;;8.10;74.40;;;;;;5082566;28;20036;-11
2021/01/30 01:28:35;;;;;;;1.42;0.60;;;8.30;73.80;;;;;;5082782;28;20037;-11
2021/01/30 01:31:02;;;;;;;1.13;0.60;;;8.30;73.60;;;;;;5082480;28;20099;-11
2021/01/30 01:33:27;;;;;;;2.25;0.60;;;8.20;73.70;;;;;;5084190;28;20028;-11
2021/01/30 01:35:53;;;;;;;0.77;0.50;;;8.00;74.30;;;;;;5082516;28;20036;-11
2021/01/30 01:38:18;;;;;;;0.93;0.60;;;8.20;74.00;;;;;;5081564;28;20064;-12
2021/01/30 01:40:44;;;;;;;2.25;0.60;;;8.00;73.60;;;;;;5082651;28;20039;-11
2021/01/30 01:43:14;;;;;;;1.35;0.65;;;7.90;74.40;;;;;;5082414;28;20036;-11
2021/01/30 01:49:25;;;;;;;1.35;0.65;;;7.90;74.70;;;;;;5084080;28;20099;-11
2021/01/30 01:55:32;;;;;;;1.70;0.67;;;7.90;73.30;;;;;;5084117;28;20011;-11
2021/01/30 01:57:57;;;;;;;2.15;0.70;;;8.10;73.50;;;;;;5081611;28;20040;-11
2021/01/30 02:00:23;;;;;;;1.30;0.60;;;8.00;73.20;;;;;;5082871;28;20254;-11
2021/01/30 02:02:49;;;;;;;1.77;0.60;;;8.10;72.90;;;;;;5081453;28;20389;-11
2021/01/30 02:05:29;;;;;;;2.58;0.80;;;8.10;73.00;;;;;;5082721;28;20086;-11
2021/01/30 02:07:57;;;;;;;1.02;0.60;;;7.90;72.90;;;;;;5081654;28;20028;-11
2021/01/30 02:10:24;;;;;;;3.33;0.60;;;7.90;73.80;;;;;;5081408;28;20043;-12
2021/01/30 02:12:50;;;;;;;1.13;0.60;;;8.10;73.50;;;;;;5082182;28;20032;-11
2021/01/30 02:15:16;;;;;;;1.92;0.60;;;8.10;73.40;;;;;;5085235;28;20333;-11
2021/01/30 02:18:04;;;;;;;1.13;0.60;;;8.20;73.60;;;;;;5086566;28;20044;-11
2021/01/30 02:20:54;;;;;;;2.13;0.50;;;8.20;73.20;;;;;;5069909;28;20033;-11
2021/01/30 02:23:32;;;;;;;1.85;0.60;;;8.20;72.80;;;;;;5085999;28;20281;-11
2021/01/30 02:26:30;;;;;;;3.83;0.70;;;8.20;72.80;;;;;;5086122;28;20044;-11
2021/01/30 02:29:28;;;;;;;1.85;0.50;;;8.20;72.80;;;;;;5071857;28;20033;-12
2021/01/30 02:32:18;;;;;;;0.90;0.65;;;8.00;73.40;;;;;;5065856;28;20051;-11
2021/01/30 02:35:17;;;;;;;1.40;0.52;;;8.00;72.90;;;;;;5086012;28;20266;-11
2021/01/30 02:38:02;;;;;;;1.70;0.60;;;8.20;72.30;;;;;;5085830;28;20044;-11
2021/01/30 02:40:29;;;;;;;1.45;0.50;;;8.30;71.50;;;;;;5084696;28;20040;-11
2021/01/30 02:43:03;;;;;;;2.05;0.60;;;8.20;71.80;;;;;;5084465;28;20077;-11
2021/01/30 02:45:29;;;;;;;1.48;0.47;;;8.30;71.10;;;;;;5086456;28;20032;-11
2021/01/30 02:48:02;;;;;;;3.13;0.60;;;8.30;71.00;;;;;;5085642;28;20058;-12
2021/01/30 02:50:31;;;;;;;0.93;0.47;;;8.30;71.10;;;;;;5085000;28;20142;-11
2021/01/30 02:52:58;;;;;;;1.00;0.60;;;8.30;70.70;;;;;;5084267;28;20036;-11
2021/01/30 02:55:24;;;;;;;1.10;0.40;;;8.30;70.20;;;;;;5084464;28;20037;-11
2021/01/30 02:57:50;;;;;;;1.50;0.50;;;8.30;70.90;;;;;;5085769;28;20036;-12
2021/01/30 03:00:17;;;;;;;1.08;0.65;;;8.30;70.40;;;;;;5069213;28;20036;-12
2021/01/30 03:02:42;;;;;;;1.23;0.47;;;8.30;70.50;;;;;;5085770;28;20040;-11
2021/01/30 03:05:09;;;;;;;1.13;0.60;;;8.30;70.30;;;;;;5085218;28;20064;-11
2021/01/30 03:08:01;;;;;;;1.33;0.55;;;8.30;70.20;;;;;;5084264;28;20037;-11
2021/01/30 03:10:29;;;;;;;;;;;8.30;69.90;;;;;;5067949;28;20049;-11
2021/01/30 03:12:56;;;;;;;1.17;0.40;;;8.50;70.10;;;;;;5085000;28;19904;-11
2021/01/30 03:15:33;;;;;;;0.82;0.45;;;8.40;70.00;;;;;;5085588;28;20196;-11
2021/01/30 03:17:59;;;;;;;1.73;0.50;;;8.40;69.80;;;;;;5084758;28;20028;-12
2021/01/30 03:20:24;;;;;;;1.25;0.50;;;8.40;70.10;;;;;;5067720;28;20033;-11
2021/01/30 03:22:50;;;;;;;0.77;0.50;;;8.50;69.00;;;;;;5067249;28;20092;-12
2021/01/30 03:25:20;;;;;;;2.17;0.60;;;8.20;70.60;;;;;;5067000;28;20056;-11
2021/01/30 03:31:27;;;;;;;0.60;0.50;;;8.30;70.60;;;;;;5086483;28;20050;-11
2021/01/30 03:33:52;;;;;;;0.93;0.60;;;8.40;70.70;;;;;;5084649;28;20028;-12
2021/01/30 03:36:18;;;;;;;2.10;0.60;;;8.40;70.10;;;;;;5086378;28;20075;-12
2021/01/30 03:38:43;;;;;;;0.77;0.50;;;8.30;69.80;;;;;;5084849;28;20231;-12
2021/01/30 03:41:09;;;;;;;1.33;0.60;;;8.20;70.60;;;;;;5085024;28;20320;-11
2021/01/30 03:43:35;;;;;;;1.90;0.60;;;8.10;70.80;;;;;;5084429;28;20345;-11
2021/01/30 03:46:00;;;;;;;1.45;0.60;;;7.90;71.70;;;;;;5084531;28;20028;-11
2021/01/30 03:48:26;;;;;;;2.28;0.60;;;8.10;71.00;;;;;;5086327;28;20375;-10
2021/01/30 03:50:51;;;;;;;1.52;0.60;;;8.20;70.60;;;;;;5084848;28;20320;-10
2021/01/30 03:53:17;;;;;;;2.35;0.60;;;8.30;70.50;;;;;;5083613;28;20041;-12
2021/01/30 03:55:42;;;;;;;1.15;0.55;;;8.30;69.90;;;;;;5084562;28;20184;-11
2021/01/30 03:58:08;;;;;;;2.15;0.60;;;8.20;70.20;;;;;;5084281;28;20041;-11
2021/01/30 04:00:34;;;;;;;1.42;0.60;;;8.10;70.00;;;;;;5086081;28;20044;-11
2021/01/30 04:03:00;;;;;;;2.42;0.50;;;7.90;70.90;;;;;;5084708;28;20024;-11
2021/01/30 04:05:26;;;;;;;1.00;0.60;;;8.10;70.40;;;;;;5084288;28;20071;-11
2021/01/30 04:07:52;;;;;;;1.55;0.60;;;8.00;70.90;;;;;;5084223;28;20044;-11
2021/01/30 04:10:21;;;;;;;3.67;0.70;;;8.10;70.10;;;;;;5084573;28;20036;-11
2021/01/30 04:16:28;;;;;;;2.90;0.77;;;8.00;70.70;;;;;;5085543;28;20016;-11
2021/01/30 04:18:54;;;;;;;1.92;0.60;;;7.90;70.50;;;;;;5084005;28;20115;-12
2021/01/30 04:21:19;;;;;;;2.90;0.70;;;8.20;69.90;;;;;;5085346;28;20036;-11
2021/01/30 04:23:45;;;;;;;2.25;0.82;;;8.10;69.70;;;;;;5083913;28;20048;-11
2021/01/30 04:26:11;;;;;;;4.63;0.65;;;8.00;69.80;;;;;;5084048;28;20041;-11
2021/01/30 04:28:37;;;;;;;4.15;0.70;;;8.00;69.50;;;;;;5083541;28;20099;-11
2021/01/30 04:31:02;;;;;;;4.03;0.90;;;7.90;70.00;;;;;;5082969;28;20239;-11
2021/01/30 04:33:28;;;;;;;2.72;0.80;;;7.90;70.00;;;;;;5085525;28;20029;-11
2021/01/30 04:35:53;;;;;;;1.88;0.60;;;7.90;69.80;;;;;;5083432;28;20044;-11
2021/01/30 04:38:19;;;;;;;4.57;0.70;;;8.10;69.40;;;;;;5082344;28;20045;-11
2021/01/30 04:40:45;;;;;;;2.65;0.82;;;7.60;69.20;;;;;;5083572;28;20036;-11
2021/01/30 04:43:18;;;;;;;3.72;0.60;;;7.80;69.30;;;;;;5065542;28;20032;-11
2021/01/30 04:49:39;;;;;;;1.83;0.60;;;7.90;68.90;;;;;;5084886;28;20024;-11
2021/01/30 04:52:28;;;;;;;1.83;0.60;;;7.90;68.90;;;;;;5066124;28;20025;-11
2021/01/30 04:55:06;;;;;;;2.70;0.70;;;8.00;68.20;;;;;;5082031;28;20048;-11
2021/01/30 04:57:41;;;;;;;3.38;1.00;;;8.00;68.40;;;;;;5083478;28;20037;-11
2021/01/30 05:00:43;;;;;;;4.70;1.00;;;8.00;68.20;;;;;;5082928;28;20032;-11
2021/01/30 05:03:35;;;;;;;;;;;7.90;67.90;;;;;;5045978;28;20039;-11
2021/01/30 05:06:08;;;;;;;5.18;0.80;;;8.00;68.10;;;;;;5060209;28;19904;-11
2021/01/30 05:08:44;;;;;;;4.38;0.80;;;8.20;67.30;;;;;;5066580;28;20103;-11
2021/01/30 05:11:16;;;;;;;7.65;0.90;;;8.20;67.20;;;;;;5066637;28;20090;-11
2021/01/30 05:13:44;;;;;;;2.63;0.88;;;8.20;66.60;;;;;;5081771;28;20040;-11
2021/01/30 05:16:23;;;;;;;3.13;0.80;;;8.20;66.80;;;;;;5082156;28;20036;-10
2021/01/30 05:22:39;;;;;;;4.28;1.00;;;8.20;66.60;;;;;;5084431;28;20016;-11
2021/01/30 05:25:07;;;;;;;3.28;0.90;;;8.10;67.60;;;;;;5082021;28;20056;-11
2021/01/30 05:28:03;;;;;;;2.65;0.70;;;8.20;67.20;;;;;;5083180;28;20134;-11
2021/01/30 05:30:49;;;;;;;5.25;1.00;;;8.20;67.50;;;;;;5083866;28;20032;-12
2021/01/30 05:33:26;;;;;;;3.90;0.80;;;8.30;67.10;;;;;;5083753;28;20204;-11
2021/01/30 05:36:15;;;;;;;4.32;0.88;;;8.30;67.40;;;;;;5083136;28;20048;-11
2021/01/30 05:38:50;;;;;;;4.65;1.02;;;8.40;67.00;;;;;;5051333;28;20209;-12
2021/01/30 05:41:41;;;;;;;6.10;1.00;;;8.30;67.60;;;;;;5081947;28;20036;-11
2021/01/30 05:44:10;;;;;;;5.28;1.55;;;8.30;68.00;;;;;;5081897;28;20032;-11
2021/01/30 05:46:36;;;;;;;6.40;1.17;;;8.40;67.20;;;;;;5081521;28;20037;-11
2021/01/30 05:49:07;;;;;;;7.00;1.10;;;8.40;67.30;;;;;;5080967;28;20383;-11
2021/01/30 05:51:39;;;;;;;4.18;0.98;;;8.40;67.10;;;;;;5067129;28;20196;-11
2021/01/30 05:54:04;;;;;;;4.30;0.95;;;8.30;67.70;;;;;;5082181;28;20111;-11
2021/01/30 05:56:41;;;;;;;3.88;1.00;;;8.10;68.00;;;;;;5082833;28;20028;-11
2021/01/30 05:59:26;;;;;;;6.30;1.52;;;8.10;68.60;;;;;;5082224;28;20036;-11
2021/01/30 06:02:10;;;;;;;6.25;0.98;;;7.90;69.50;;;;;;5080998;28;20032;-11
2021/01/30 06:04:35;;;;;;;4.72;1.08;;;7.90;70.50;;;;;;5081246;28;20355;-11
2021/01/30 06:07:01;;;;;;;6.55;1.80;;;7.80;71.70;;;;;;5081114;28;20058;-11
2021/01/30 06:09:36;;;;;;;6.63;1.30;;;7.80;72.10;;;;;;5082719;28;20315;-11
2021/01/30 06:12:03;;;;;;;4.40;1.00;;;8.00;71.70;;;;;;5082887;28;20044;-11
2021/01/30 06:14:36;;;;;;;4.18;1.02;;;8.20;71.70;;;;;;5081565;28;20056;-11
2021/01/30 06:17:01;;;;;;;6.43;1.10;;;8.20;71.10;;;;;;5081219;28;20036;-12
2021/01/30 06:19:32;;;;;;;6.50;0.90;;;8.00;71.80;;;;;;5082240;28;20221;-12
2021/01/30 06:22:07;;;;;;;4.32;0.80;;;8.10;71.60;;;;;;5082390;28;20090;-11
2021/01/30 06:24:32;;;;;;;6.68;1.67;;;8.10;71.90;;;;;;5083942;28;20032;-11
2021/01/30 06:27:04;;;;;;;5.68;1.08;;;8.10;71.40;;;;;;5082386;28;20075;-11
2021/01/30 06:29:48;;;;;;;6.13;1.17;;;8.30;71.00;;;;;;5081335;28;20354;-11
2021/01/30 06:32:19;;;;;;;5.50;1.00;;;8.40;70.60;;;;;;5082141;28;20311;-11
2021/01/30 06:34:45;;;;;;;;;;;8.40;70.30;;;;;;5082443;28;20385;-12
2021/01/30 06:37:14;;;;;;;8.90;1.20;;;8.50;69.60;;;;;;5082049;28;19916;-11
2021/01/30 06:43:32;;;;;;;6.03;1.23;;;8.10;70.50;;;;;;5083592;28;20076;-11
2021/01/30 06:46:20;;;;;;;4.78;1.08;;;8.10;70.00;;;;;;5081939;28;20081;-10
2021/01/30 06:52:31;;;;;;;6.82;1.23;;;8.20;69.90;;;;;;5083757;28;20036;-12
2021/01/30 06:55:05;;;;;;;5.78;1.15;;;8.40;69.40;;;;;;5082296;28;20054;-11
2021/01/30 06:57:32;;;;;;;5.25;1.00;;;8.40;69.00;;;;;;5083613;28;20189;-11
2021/01/30 06:59:58;;;;;;;6.25;1.33;;;8.20;69.70;;;;;;5081556;28;20212;-11
2021/01/30 07:02:45;;;;;;;5.82;0.90;;;8.20;69.20;;;;;;5083605;28;20029;-12
2021/01/30 07:05:31;;;;;;;5.40;1.00;;;8.30;69.20;;;;;;5084810;28;20051;-12
2021/01/30 07:08:03;;;;;;;5.13;1.13;;;8.20;69.20;;;;;;5069948;28;20044;-11
2021/01/30 07:10:43;;;;;;;;;;;8.40;68.00;;;;;;5085958;28;20045;-12
2021/01/30 07:13:30;;;;;;;3.38;1.00;;;8.40;68.10;;;;;;5067449;28;19908;-12
2021/01/30 07:16:13;;;;;;;8.88;1.55;;;8.50;67.70;;;;;;5085345;28;20328;-12
2021/01/30 07:22:36;;;;;;;5.75;0.90;;;8.40;67.60;;;;;;5086602;28;20334;-12
2021/01/30 07:25:23;;;;;;;9.40;2.03;;;8.30;67.70;;;;;;5083847;28;20040;-12
2021/01/30 07:31:45;;;;;;;4.80;1.25;;;8.50;67.70;;;;;;5086496;28;20019;-11
2021/01/30 07:34:21;;;;;;;3.65;1.00;;;8.50;66.60;;;;;;5083977;28;20044;-11
2021/01/30 07:36:52;;;;;;;8.15;1.10;;;8.40;67.40;;;;;;5083553;28;20068;-11
2021/01/30 07:39:27;;;;;;;10.27;2.08;;;8.40;67.30;;;;;;5085141;28;20047;-11
2021/01/30 07:42:00;;;;;;;4.20;0.98;;;8.60;66.80;;;;;;5084220;28;20041;-11
2021/01/30 07:44:42;;;;;;;6.97;1.10;;;8.60;66.30;;;;;;5083931;28;20032;-12
2021/01/30 07:47:47;;;;;;;4.93;1.20;;;8.60;66.00;;;;;;5083660;28;20037;-11
2021/01/30 07:50:26;;;;;;;7.38;1.13;;;8.80;65.70;;;;;;5053200;28;20041;-11
2021/01/30 07:52:57;;;;;;;3.67;1.10;;;8.90;65.30;;;;;;5084659;28;20073;-11
2021/01/30 07:55:23;;;;;;;5.95;1.38;;;8.90;64.70;;;;;;5084471;28;20149;-12
2021/01/30 07:58:14;;;;;;;7.57;1.40;;;8.90;64.90;;;;;;5066362;28;20056;-12
2021/01/30 08:04:46;;;;;;;7.40;1.50;;;8.90;64.20;;;;;;5085779;28;20250;-12
2021/01/30 08:07:44;;;;;;;4.38;1.10;;;9.00;63.80;;;;;;5067702;28;20271;-11
2021/01/30 08:10:49;;;;;;;5.88;1.10;;;9.00;63.70;;;;;;5083269;28;20227;-11
2021/01/30 08:13:40;;;;;;;5.97;1.25;;;9.00;63.80;;;;;;5083112;28;20033;-11
2021/01/30 08:16:14;;;;;;;6.47;1.20;;;9.00;63.90;;;;;;5083444;28;20033;-11
2021/01/30 08:22:48;;;;;;;6.30;1.15;;;8.90;64.00;;;;;;5085362;28;20016;-12
2021/01/30 08:25:33;;;;;;;6.68;1.88;;;8.90;64.20;;;;;;5083923;28;20332;-12
2021/01/30 08:28:05;;;;;;;5.68;1.50;;;8.80;64.30;;;;;;5083925;28;20040;-12
2021/01/30 08:30:30;;;;;;;7.93;1.15;;;8.80;64.40;;;;;;5068010;28;20066;-12
2021/01/30 08:33:01;;;;;;;7.75;1.30;;;9.00;63.90;;;;;;5049125;28;20257;-11
2021/01/30 08:35:26;;;;;;;5.00;1.10;;;9.00;63.50;;;;;;5083597;28;20347;-11
2021/01/30 08:38:06;;;;;;;7.22;1.52;;;9.00;62.80;;;;;;5082810;28;20321;-12
2021/01/30 08:40:45;;;;;;;6.07;1.20;;;9.10;63.30;;;;;;5083384;28;20037;-12
2021/01/30 08:43:45;;;;;;;12.15;1.48;;;8.90;62.90;;;;;;5083448;28;20040;-12
2021/01/30 08:46:27;;;;;;;9.30;2.60;;;8.90;63.60;;;;;;5083652;28;20134;-11
2021/01/30 08:49:22;;;;;;;9.45;1.40;;;8.80;64.00;;;;;;5082602;28;20316;-11
2021/01/30 08:56:05;;;;;;;4.97;1.33;;;9.10;63.20;;;;;;5084808;28;20381;-12
2021/01/30 08:58:35;;;;;;;7.00;1.20;;;9.30;62.30;;;;;;5083140;28;20040;-11
2021/01/30 09:01:06;;;;;;;4.75;1.10;;;9.40;62.10;;;;;;5083281;28;20098;-12
2021/01/30 09:03:49;;;;;;;7.18;1.23;;;9.50;61.80;;;;;;5084584;28;20083;-11
2021/01/30 09:06:40;;;;;;;6.57;1.48;;;9.40;61.20;;;;;;5082090;28;20043;-11
2021/01/30 09:09:08;;;;;;;7.93;1.27;;;9.40;61.60;;;;;;5083675;28;20036;-11
2021/01/30 09:11:38;;;;;;;6.05;1.40;;;9.40;61.80;;;;;;5083017;28;20033;-12
2021/01/30 09:14:15;;;;;;;6.00;1.20;;;9.40;62.10;;;;;;5083332;28;20103;-12
2021/01/30 09:16:56;;;;;;;4.68;1.30;;;9.50;61.70;;;;;;5081994;28;20380;-12
2021/01/30 09:19:44;;;;;;;6.35;1.45;;;9.50;61.50;;;;;;5083119;28;20037;-12
2021/01/30 09:22:18;;;;;;;7.43;1.63;;;9.50;61.30;;;;;;5083188;28;20047;-12
2021/01/30 09:28:31;;;;;;;6.03;1.58;;;9.60;61.10;;;;;;5084295;28;20019;-12
2021/01/30 09:31:01;;;;;;;3.53;1.30;;;9.60;61.20;;;;;;5081248;28;20028;-11
2021/01/30 09:33:30;;;;;;;5.93;1.60;;;9.60;61.20;;;;;;5083720;28;20288;-10
2021/01/30 09:36:01;;;;;;;5.20;1.40;;;9.80;60.90;;;;;;5082703;28;20029;-12
2021/01/30 09:38:37;;;;;;;8.05;1.70;;;9.80;60.90;;;;;;5081411;28;20052;-11
2021/01/30 09:41:21;;;;;;;6.63;1.33;;;9.70;61.00;;;;;;5082916;28;20033;-11
2021/01/30 09:43:46;;;;;;;10.95;1.38;;;9.80;60.40;;;;;;5082552;28;20208;-11
2021/01/30 09:46:15;;;;;;;9.13;1.88;;;9.90;60.50;;;;;;5081550;28;20036;-12
2021/01/30 09:52:21;;;;;;;3.30;1.20;;;9.80;60.50;;;;;;5083884;28;20016;-11
2021/01/30 09:58:28;;;;;;;7.05;1.30;;;9.70;60.60;;;;;;5083910;28;20127;-11
2021/01/30 10:00:54;;;;;;;6.47;1.40;;;10.10;60.20;;;;;;5081237;28;20032;-11
2021/01/30 10:03:24;;;;;;;6.55;1.25;;;10.20;59.80;;;;;;5083359;28;20033;-11
2021/01/30 10:05:52;;;;;;;6.20;1.27;;;10.40;58.20;;;;;;5082766;28;20043;-11
2021/01/30 10:08:22;;;;;;;5.70;1.42;;;10.80;57.30;;;;;;5082830;28;20037;-11
2021/01/30 10:10:47;;;;;;;6.32;1.63;;;10.90;57.00;;;;;;5082438;28;20060;-11
2021/01/30 10:13:15;;;;;;;4.70;1.20;;;11.10;56.80;;;;;;5082471;28;20104;-11
2021/01/30 10:19:25;;;;;;;8.57;1.55;;;11.80;53.40;;;;;;5083807;28;20024;-12
2021/01/30 10:25:32;;;;;;;3.27;0.90;;;13.10;50.70;;;;;;5083598;28;20012;-11
2021/01/30 10:28:05;;;;;;;7.22;1.23;;;13.80;49.00;;;;;;5082449;28;20331;-11
2021/01/30 10:30:31;;;;;;;7.65;1.70;;;14.10;47.70;;;;;;5083556;28;20021;-12
2021/01/30 10:32:56;;;;;;;7.93;1.35;;;14.40;47.20;;;;;;5080845;28;20088;-11
2021/01/30 10:35:25;;;;;;;5.97;1.20;;;14.80;47.00;;;;;;5081223;28;20040;-12
2021/01/30 10:37:53;;;;;;;6.72;1.35;;;14.90;45.40;;;;;;5084319;28;20079;-12
2021/01/30 10:40:31;;;;;;;4.32;1.38;;;15.10;45.20;;;;;;5067995;28;20044;-13
2021/01/30 10:43:00;;;;;;;4.90;1.40;;;15.40;45.00;;;;;;5084959;28;20033;-13
2021/01/30 10:45:27;;;;;;;6.00;1.30;;;15.60;44.80;;;;;;5079691;28;20037;-13
2021/01/30 10:48:09;;;;;;;4.47;1.30;;;15.60;43.50;;;;;;5084634;28;20044;-12
2021/01/30 10:50:36;;;;;;;6.57;1.35;;;15.70;42.80;;;;;;5084580;28;20044;-12
2021/01/30 10:53:20;;;;;;;5.18;1.40;;;15.80;43.40;;;;;;5084647;28;20037;-12
2021/01/30 10:55:45;;;;;;;3.78;1.10;;;15.60;42.60;;;;;;5085203;28;20302;-12
2021/01/30 10:58:26;;;;;;;3.78;1.00;;;15.90;42.60;;;;;;5085889;28;20025;-12
2021/01/30 11:01:02;;;;;;;6.07;1.77;;;16.00;42.00;;;;;;5085965;28;20103;-13
2021/01/30 11:03:40;;;;;;;3.78;1.20;;;16.10;41.90;;;;;;5084326;28;20119;-13
2021/01/30 11:06:14;;;;;;;4.75;1.20;;;16.20;41.80;;;;;;5085388;28;20065;-12
2021/01/30 11:08:39;;;;;;;5.13;1.20;;;16.30;40.70;;;;;;5084829;28;20086;-13
2021/01/30 11:11:06;;;;;;;4.20;1.00;;;16.00;40.20;;;;;;5085346;28;20024;-13
2021/01/30 11:13:34;;;;;;;6.55;1.30;;;16.00;40.10;;;;;;5084947;28;20207;-13
2021/01/30 11:16:08;;;;;;;7.63;1.30;;;15.90;40.20;;;;;;5086911;28;20024;-13
2021/01/30 11:18:37;;;;;;;9.63;1.42;;;15.80;40.10;;;;;;5084446;28;20067;-12
2021/01/30 11:21:03;;;;;;;7.93;1.90;;;15.90;40.70;;;;;;5085581;28;20033;-13
2021/01/30 11:23:48;;;;;;;5.10;1.20;;;15.90;40.40;;;;;;5085217;28;20060;-13
2021/01/30 11:26:34;;;;;;;4.97;1.30;;;15.70;39.70;;;;;;5067863;28;20032;-12
2021/01/30 11:29:00;;;;;;;8.10;1.55;;;15.40;39.80;;;;;;5084900;28;20319;-12
2021/01/30 11:31:25;;;;;;;4.85;1.20;;;15.50;40.60;;;;;;5085958;28;20092;-12
2021/01/30 11:33:52;;;;;;;6.70;1.52;;;15.40;41.00;;;;;;5085358;28;20035;-12
2021/01/30 11:36:17;;;;;;;9.05;1.75;;;15.30;41.70;;;;;;5083919;28;20040;-12
2021/01/30 11:38:44;;;;;;;8.32;1.80;;;15.10;41.90;;;;;;5083274;28;20339;-12
2021/01/30 11:41:10;;;;;;;7.18;1.50;;;15.00;42.10;;;;;;5084781;28;20041;-13
2021/01/30 11:43:36;;;;;;;5.70;1.30;;;14.90;42.60;;;;;;5084671;28;20033;-12
2021/01/30 11:46:01;;;;;;;6.07;1.52;;;14.60;43.20;;;;;;5086711;28;20094;-12
2021/01/30 11:48:27;;;;;;;6.25;1.25;;;14.60;43.30;;;;;;5083452;28;20028;-12
2021/01/30 11:50:52;;;;;;;5.50;1.45;;;14.40;43.50;;;;;;5084556;28;20056;-12
2021/01/30 11:53:29;;;;;;;8.77;1.60;;;14.30;43.80;;;;;;5082770;28;20028;-13
2021/01/30 11:55:55;;;;;;;6.60;1.40;;;14.40;44.40;;;;;;5084791;28;20336;-12
2021/01/30 11:58:20;;;;;;;5.53;1.30;;;14.30;44.30;;;;;;5084737;28;20099;-12
2021/01/30 12:00:46;;;;;;;9.23;1.50;;;14.30;43.50;;;;;;5086139;28;20020;-12
2021/01/30 12:03:24;;;;;;;7.03;1.50;;;14.20;44.10;;;;;;5083941;28;20103;-12
2021/01/30 12:05:49;;;;;;;7.30;1.40;;;14.00;44.30;;;;;;5083908;28;20036;-11
2021/01/30 12:08:15;;;;;;;7.13;1.38;;;14.00;44.10;;;;;;5084314;28;20029;-12
2021/01/30 12:10:40;;;;;;;10.38;1.90;;;13.70;44.50;;;;;;5066306;28;20028;-12
2021/01/30 12:13:06;;;;;;;9.23;1.30;;;13.80;44.50;;;;;;5085847;28;20359;-11
2021/01/30 12:15:32;;;;;;;5.63;1.40;;;13.60;45.00;;;;;;5084441;28;20096;-11
2021/01/30 12:17:57;;;;;;;8.65;1.40;;;13.60;45.00;;;;;;5084161;28;20274;-11
2021/01/30 12:20:24;;;;;;;8.15;1.40;;;13.50;45.50;;;;;;5084155;28;20324;-12
2021/01/30 12:22:50;;;;;;;4.45;1.23;;;13.60;45.40;;;;;;5084123;28;20219;-12
2021/01/30 12:25:16;;;;;;;5.63;1.48;;;13.50;45.80;;;;;;5083334;28;20025;-11
2021/01/30 12:27:47;;;;;;;6.00;1.38;;;13.50;45.90;;;;;;5085014;28;20092;-12
2021/01/30 12:30:13;;;;;;;5.68;1.50;;;13.50;46.20;;;;;;5082889;28;20047;-12
2021/01/30 12:32:38;;;;;;;10.13;1.40;;;13.40;46.60;;;;;;5083769;28;20040;-12
2021/01/30 12:35:06;;;;;;;6.25;1.40;;;13.20;45.90;;;;;;5083378;28;20350;-12
2021/01/30 12:37:32;;;;;;;4.93;1.60;;;13.00;46.50;;;;;;5082019;28;20048;-12
2021/01/30 12:39:57;;;;;;;6.43;1.20;;;12.90;46.30;;;;;;5085340;28;20040;-12
2021/01/30 12:42:23;;;;;;;4.75;1.02;;;12.80;46.20;;;;;;5083552;28;20039;-12
2021/01/30 12:44:49;;;;;;;7.05;1.30;;;12.80;46.70;;;;;;5083284;28;20088;-11
2021/01/30 12:47:30;;;;;;;7.45;1.52;;;12.80;47.10;;;;;;5081947;28;20035;-12
2021/01/30 12:49:56;;;;;;;9.85;1.98;;;12.80;47.30;;;;;;5083255;28;20032;-11
2021/01/30 12:52:21;;;;;;;7.72;1.52;;;12.80;47.30;;;;;;5083261;28;20300;-12
2021/01/30 12:54:47;;;;;;;10.90;1.48;;;12.80;48.50;;;;;;5085035;28;20343;-11
2021/01/30 12:57:12;;;;;;;6.82;1.40;;;12.80;48.50;;;;;;5083296;28;20202;-12
2021/01/30 12:59:38;;;;;;;7.13;1.30;;;12.70;49.30;;;;;;5082276;28;20331;-12
2021/01/30 13:02:03;;;;;;;5.93;1.58;;;12.70;49.40;;;;;;5082857;28;20036;-12
2021/01/30 13:04:29;;;;;;;9.77;1.42;;;12.50;49.20;;;;;;5083098;28;20025;-12
2021/01/30 13:06:55;;;;;;;6.45;1.42;;;12.60;48.90;;;;;;5084634;28;20028;-11
2021/01/30 13:09:21;;;;;;;8.30;1.77;;;12.60;49.00;;;;;;5083022;28;20037;-12
2021/01/30 13:11:49;;;;;;;8.88;1.67;;;12.60;48.90;;;;;;5082749;28;20048;-12
2021/01/30 13:14:15;;;;;;;4.63;1.42;;;12.50;49.20;;;;;;5083002;28;20044;-12
2021/01/30 13:16:43;;;;;;;11.63;1.45;;;12.40;49.70;;;;;;5082837;28;20087;-11
2021/01/30 13:19:12;;;;;;;7.53;2.30;;;12.30;49.20;;;;;;5084629;28;20028;-11
2021/01/30 13:21:38;;;;;;;6.38;1.60;;;12.20;50.00;;;;;;5082672;28;20048;-12
2021/01/30 13:24:04;;;;;;;5.20;1.30;;;12.20;50.10;;;;;;5082971;28;20036;-11
2021/01/30 13:26:30;;;;;;;3.15;0.90;;;12.20;50.00;;;;;;5082501;28;20034;-11
2021/01/30 13:28:55;;;;;;;3.58;0.95;;;12.20;49.50;;;;;;5082409;28;20280;-12
2021/01/30 13:31:21;;;;;;;6.22;0.93;;;12.10;49.30;;;;;;5082739;28;20368;-11
2021/01/30 13:33:46;;;;;;;5.18;1.35;;;11.90;49.80;;;;;;5084544;28;20024;-11
2021/01/30 13:36:12;;;;;;;3.20;0.60;;;11.80;49.50;;;;;;5082869;28;20220;-11
2021/01/30 13:38:37;;;;;;;2.80;0.90;;;11.50;49.70;;;;;;5082512;28;20126;-11
2021/01/30 13:41:03;;;;;;;3.42;1.08;;;11.60;50.10;;;;;;5082663;28;20032;-11
2021/01/30 13:43:28;;;;;;;2.88;0.70;;;11.60;50.10;;;;;;5081150;28;20028;-11
2021/01/30 13:45:54;;;;;;;1.42;0.80;;;11.80;49.90;;;;;;5084259;28;20087;-11
2021/01/30 13:48:19;;;;;;;2.03;0.65;;;11.90;49.30;;;;;;5082818;28;20036;-11
2021/01/30 13:50:46;;;;;;;2.28;0.77;;;11.60;50.20;;;;;;5082463;28;20037;-11
2021/01/30 13:53:12;;;;;;;4.03;1.08;;;11.80;51.00;;;;;;5081397;28;20070;-11
2021/01/30 13:55:37;;;;;;;4.80;1.02;;;11.80;50.60;;;;;;5082311;28;20082;-11
2021/01/30 13:58:03;;;;;;;4.43;0.95;;;11.80;50.90;;;;;;5084042;28;20299;-11
2021/01/30 14:00:29;;;;;;;2.47;0.80;;;11.80;51.10;;;;;;5082338;28;20033;-12
2021/01/30 14:02:54;;;;;;;1.73;0.70;;;11.90;51.50;;;;;;5082596;28;20037;-11
2021/01/30 14:05:25;;;;;;;2.15;0.60;;;11.50;51.30;;;;;;5081196;28;20092;-12
2021/01/30 14:07:54;;;;;;;3.95;0.95;;;11.60;51.50;;;;;;5082566;28;20039;-11
2021/01/30 14:10:19;;;;;;;2.97;0.80;;;11.60;51.70;;;;;;5083249;28;20091;-13
2021/01/30 14:12:45;;;;;;;1.90;0.68;;;11.60;51.90;;;;;;5088460;28;20027;-12
2021/01/30 14:15:11;;;;;;;3.38;0.88;;;11.60;52.50;;;;;;5086349;28;20036;-12
2021/01/30 14:17:37;;;;;;;1.73;0.70;;;11.60;51.90;;;;;;5086063;28;20285;-11
2021/01/30 14:20:03;;;;;;;2.63;0.73;;;11.60;52.10;;;;;;5085106;28;20056;-11
2021/01/30 14:22:29;;;;;;;3.75;0.70;;;11.60;52.20;;;;;;5086005;28;20036;-11
2021/01/30 14:24:54;;;;;;;3.83;1.25;;;11.40;52.50;;;;;;5087818;28;20088;-11
2021/01/30 14:27:21;;;;;;;3.40;0.80;;;11.40;53.60;;;;;;5086172;28;20051;-11
2021/01/30 14:29:50;;;;;;;5.75;1.00;;;11.30;54.00;;;;;;5085039;28;20039;-12